Time;durP1;ratioP1;P1;durP2;ratioP2;P2;SDS_P1;SDS_P2;PMS_P1;PMS_P2;Temp;Humidity;BMP_temperature;BMP_pressure;BME280_temperature;BME280_humidity;BME280_pressure;Samples;Min_cycle;Max_cycle;Signal;HPM_P1;HPM_P2
2024/01/21 00:01:15;;;;;;;13.43;6.18;;;;;;;4.06;59.17;102640.09;5035273;28;20055;-41
2024/01/21 00:03:40;;;;;;;12.38;7.25;;;;;;;4.00;59.55;102639.22;5029717;28;20028;-40
2024/01/21 00:06:06;;;;;;;12.02;6.00;;;;;;;4.06;59.72;102631.41;5035972;28;20052;-40
2024/01/21 00:08:31;;;;;;;16.77;7.65;;;;;;;4.05;59.27;102637.47;5029863;28;20076;-42
2024/01/21 00:10:56;;;;;;;15.40;7.72;;;;;;;4.02;59.31;102637.47;5038276;28;20032;-43
2024/01/21 00:13:22;;;;;;;15.73;8.38;;;;;;;4.03;59.66;102634.00;5036204;28;20724;-39
2024/01/21 00:15:47;;;;;;;19.33;7.28;;;;;;;4.00;59.50;102634.03;5038477;28;20043;-39
2024/01/21 00:18:13;;;;;;;15.27;8.32;;;;;;;3.95;59.35;102631.38;5022585;28;20029;-42
2024/01/21 00:20:38;;;;;;;17.75;7.05;;;;;;;3.93;59.79;102636.59;5040503;28;20029;-41
2024/01/21 00:23:04;;;;;;;15.95;8.23;;;;;;;3.95;59.95;102637.47;5044533;28;20225;-40
2024/01/21 00:25:29;;;;;;;17.65;7.97;;;;;;;3.91;59.50;102632.28;5027358;28;20089;-42
2024/01/21 00:27:55;;;;;;;17.00;8.02;;;;;;;3.90;59.90;102634.00;5045525;28;20052;-43
2024/01/21 00:30:20;;;;;;;24.92;9.43;;;;;;;3.87;59.42;102643.56;5039928;28;20052;-44
2024/01/21 00:32:45;;;;;;;20.63;8.18;;;;;;;3.85;59.46;102646.16;5041220;28;20119;-44
2024/01/21 00:35:11;;;;;;;16.40;7.28;;;;;;;3.79;59.23;102651.34;5037669;28;20529;-41
2024/01/21 00:37:37;;;;;;;20.25;7.63;;;;;;;3.80;59.58;102645.28;5020582;28;20036;-41
2024/01/21 00:40:03;;;;;;;16.52;7.28;;;;;;;3.80;59.89;102634.88;5041016;28;20029;-38
2024/01/21 00:42:28;;;;;;;15.35;7.32;;;;;;;3.78;59.76;102641.81;5038020;28;21006;-42
2024/01/21 00:44:53;;;;;;;18.77;7.15;;;;;;;3.74;59.76;102642.66;5038922;28;20040;-38
2024/01/21 00:47:20;;;;;;;17.00;4.93;;;;;;;3.70;59.36;102635.72;5032897;28;20501;-40
2024/01/21 00:49:46;;;;;;;15.07;7.22;;;;;;;3.74;59.83;102637.44;5038340;28;20495;-40
2024/01/21 00:52:11;;;;;;;23.48;8.60;;;;;;;3.73;59.93;102635.72;5042289;28;20032;-39
2024/01/21 00:54:36;;;;;;;16.88;8.05;;;;;;;3.72;60.18;102636.56;5041494;28;20029;-39
2024/01/21 00:57:02;;;;;;;20.60;8.63;;;;;;;3.72;60.02;102647.00;5045107;28;20132;-40
2024/01/21 00:59:27;;;;;;;15.50;7.40;;;;;;;3.72;60.18;102639.19;5025415;28;20514;-40
2024/01/21 01:01:52;;;;;;;17.73;9.00;;;;;;;3.66;59.93;102640.03;5044500;28;20368;-40
2024/01/21 01:04:17;;;;;;;19.30;8.52;;;;;;;3.64;59.93;102632.25;5049400;28;20495;-40
2024/01/21 01:06:43;;;;;;;21.27;9.00;;;;;;;3.65;60.00;102631.38;5044236;28;20150;-38
2024/01/21 01:09:08;;;;;;;17.35;8.40;;;;;;;3.56;59.55;102623.53;5044984;28;20119;-40
2024/01/21 01:11:33;;;;;;;19.85;9.00;;;;;;;3.53;59.88;102627.88;5040387;28;20406;-40
2024/01/21 01:13:59;;;;;;;17.65;8.93;;;;;;;3.48;59.45;102630.47;5040077;28;20064;-41
2024/01/21 01:16:24;;;;;;;17.65;7.75;;;;;;;3.49;60.05;102632.22;5047829;28;20127;-38
2024/01/21 01:18:49;;;;;;;19.73;8.52;;;;;;;3.52;60.30;102619.22;5039663;28;20048;-39
2024/01/21 01:21:15;;;;;;;19.38;8.35;;;;;;;3.52;59.97;102632.22;5047592;28;20102;-40
2024/01/21 01:23:40;;;;;;;19.13;7.75;;;;;;;3.51;60.31;102625.28;5031830;28;20036;-40
2024/01/21 01:26:08;;;;;;;20.20;10.45;;;;;;;3.56;60.32;102625.28;5045933;28;20043;-39
2024/01/21 01:28:33;;;;;;;21.33;8.63;;;;;;;3.48;60.06;102630.47;5043633;28;20061;-40
2024/01/21 01:30:59;;;;;;;18.33;8.07;;;;;;;3.43;59.74;102624.38;5040980;28;20115;-41
2024/01/21 01:33:24;;;;;;;20.20;9.27;;;;;;;3.47;60.21;102626.13;5045443;28;20032;-40
2024/01/21 01:35:50;;;;;;;17.77;8.73;;;;;;;3.45;60.01;102627.84;5041354;28;20521;-40
2024/01/21 01:38:16;;;;;;;18.35;8.32;;;;;;;3.46;60.09;102627.88;5042364;28;20067;-40
2024/01/21 01:40:41;;;;;;;22.80;10.13;;;;;;;3.43;60.02;102629.56;5040363;28;20037;-40
2024/01/21 01:43:06;;;;;;;19.60;9.00;;;;;;;3.37;59.68;102627.84;5044363;28;20025;-40
2024/01/21 01:45:31;;;;;;;17.70;8.55;;;;;;;3.37;59.74;102626.97;5035716;28;20415;-41
2024/01/21 01:47:58;;;;;;;17.30;7.82;;;;;;;3.40;60.13;102621.78;5033802;28;20044;-39
2024/01/21 01:50:25;;;;;;;16.52;7.90;;;;;;;3.43;60.29;102632.19;5042066;28;20111;-40
2024/01/21 01:52:51;;;;;;;14.50;6.97;;;;;;;3.43;60.45;102622.66;5047584;28;20036;-39
2024/01/21 01:55:17;;;;;;;14.57;7.57;;;;;;;3.45;60.74;102613.13;5045844;28;20036;-38
2024/01/21 01:57:45;;;;;;;18.23;7.57;;;;;;;3.47;60.62;102615.72;5041147;28;20037;-39
2024/01/21 02:00:12;;;;;;;17.85;8.60;;;;;;;3.44;60.68;102615.69;5040531;28;20403;-40
2024/01/21 02:02:40;;;;;;;17.55;6.57;;;;;;;3.45;60.66;102620.03;5040811;28;20112;-37
2024/01/21 02:05:06;;;;;;;16.67;7.70;;;;;;;3.41;60.80;102613.09;5042035;28;20479;-39
2024/01/21 02:07:32;;;;;;;17.27;7.65;;;;;;;3.39;60.64;102620.06;5026409;28;20049;-40
2024/01/21 02:09:59;;;;;;;17.75;8.35;;;;;;;3.39;60.79;102620.06;5042187;28;20041;-40
2024/01/21 02:12:24;;;;;;;15.93;7.45;;;;;;;3.39;60.65;102618.31;5040150;28;20086;-40
2024/01/21 02:14:49;;;;;;;18.95;7.40;;;;;;;3.38;60.70;102619.16;5033913;28;20094;-40
2024/01/21 02:17:14;;;;;;;16.33;7.90;;;;;;;3.37;60.42;102606.16;5044208;28;20045;-39
2024/01/21 02:19:40;;;;;;;14.10;6.97;;;;;;;3.35;60.70;102608.75;5033094;28;20051;-39
2024/01/21 02:22:05;;;;;;;16.13;7.20;;;;;;;3.34;60.61;102599.19;5044192;28;20403;-39
2024/01/21 02:24:31;;;;;;;20.40;7.47;;;;;;;3.35;60.68;102594.00;5043913;28;20052;-40
2024/01/21 02:26:57;;;;;;;16.42;8.05;;;;;;;3.32;60.56;102591.41;5045436;28;20048;-40
2024/01/21 02:29:23;;;;;;;15.27;7.55;;;;;;;3.29;60.59;102588.78;5039680;28;20111;-41
2024/01/21 02:31:50;;;;;;;18.40;8.15;;;;;;;3.30;60.95;102587.91;5038251;28;20498;-39
2024/01/21 02:34:15;;;;;;;17.23;7.00;;;;;;;3.28;60.86;102584.44;5041934;28;20083;-40
2024/01/21 02:36:40;;;;;;;12.60;6.32;;;;;;;3.28;60.75;102579.22;5038646;28;20049;-39
2024/01/21 02:39:05;;;;;;;17.95;6.38;;;;;;;3.25;60.73;102576.66;5045822;28;20486;-40
2024/01/21 02:41:31;;;;;;;19.40;6.43;;;;;;;3.25;60.91;102581.84;5043694;28;20052;-40
2024/01/21 02:43:56;;;;;;;15.00;6.97;;;;;;;3.28;60.98;102581.84;5024304;28;20033;-40
2024/01/21 02:46:22;;;;;;;18.38;8.05;;;;;;;3.29;60.97;102580.97;5040330;28;20116;-40
2024/01/21 02:48:47;;;;;;;15.05;7.30;;;;;;;3.29;61.06;102573.16;5047016;28;20056;-39
2024/01/21 02:51:15;;;;;;;14.30;5.93;;;;;;;3.34;60.97;102583.56;5035979;28;20114;-41
2024/01/21 02:53:41;;;;;;;15.23;7.00;;;;;;;3.28;60.95;102581.84;5040397;28;20131;-40
2024/01/21 02:56:07;;;;;;;12.50;6.28;;;;;;;3.26;61.02;102577.50;5023106;28;20127;-39
2024/01/21 02:58:32;;;;;;;15.25;7.15;;;;;;;3.25;61.03;102574.03;5044220;28;20043;-40
2024/01/21 03:00:57;;;;;;;14.85;8.13;;;;;;;3.25;60.96;102576.66;5047977;28;20487;-39
2024/01/21 03:03:22;;;;;;;15.02;6.57;;;;;;;3.25;60.93;102571.44;5046307;28;20112;-38
2024/01/21 03:05:48;;;;;;;14.63;7.47;;;;;;;3.23;60.82;102578.38;5041039;28;20495;-42
2024/01/21 03:08:14;;;;;;;14.20;6.05;;;;;;;3.23;60.83;102567.97;5043659;28;20134;-38
2024/01/21 03:10:40;;;;;;;16.58;7.05;;;;;;;3.22;60.71;102568.84;5044379;28;20028;-40
2024/01/21 03:13:05;;;;;;;13.90;6.90;;;;;;;3.21;60.80;102574.91;5037068;28;20024;-40
2024/01/21 03:15:30;;;;;;;14.85;6.15;;;;;;;3.19;60.87;102571.41;5043963;28;20056;-41
2024/01/21 03:17:55;;;;;;;12.35;6.57;;;;;;;3.17;60.74;102570.53;5041827;28;21193;-40
2024/01/21 03:20:21;;;;;;;14.13;6.88;;;;;;;3.18;61.19;102569.69;5039355;28;20056;-40
2024/01/21 03:22:46;;;;;;;18.15;7.60;;;;;;;3.16;61.20;102567.09;5045635;28;20056;-40
2024/01/21 03:25:11;;;;;;;18.92;7.22;;;;;;;3.17;61.16;102570.53;5046743;28;20449;-40
2024/01/21 03:27:36;;;;;;;13.55;5.55;;;;;;;3.14;60.96;102568.81;5014839;28;20048;-41
2024/01/21 03:30:02;;;;;;;19.50;7.25;;;;;;;3.14;61.01;102580.94;5046960;28;20035;-40
2024/01/21 03:32:27;;;;;;;12.40;6.13;;;;;;;3.11;61.09;102579.19;5037354;28;20041;-40
2024/01/21 03:34:52;;;;;;;15.80;7.72;;;;;;;3.08;61.05;102584.38;5046796;28;20025;-42
2024/01/21 03:37:18;;;;;;;17.73;7.97;;;;;;;3.08;60.99;102581.78;5044455;28;20438;-39
2024/01/21 03:39:43;;;;;;;18.35;7.50;;;;;;;3.09;61.05;102577.47;5046323;28;20126;-40
2024/01/21 03:42:09;;;;;;;17.15;7.38;;;;;;;3.10;60.83;102576.59;5044647;28;20053;-40
2024/01/21 03:44:34;;;;;;;20.85;7.97;;;;;;;3.12;61.14;102580.94;5044341;28;20032;-41
2024/01/21 03:47:00;;;;;;;25.85;8.80;;;;;;;3.09;60.69;102577.47;5046296;28;20040;-40
2024/01/21 03:49:27;;;;;;;14.88;6.00;;;;;;;3.09;60.44;102574.88;5044058;28;20029;-40
2024/01/21 03:51:52;;;;;;;15.07;5.93;;;;;;;3.10;61.07;102571.41;5049538;28;20091;-40
2024/01/21 03:54:17;;;;;;;16.27;6.97;;;;;;;3.09;60.92;102565.31;5042680;28;20029;-41
2024/01/21 03:56:43;;;;;;;14.55;6.13;;;;;;;3.08;60.81;102563.56;5046037;28;20591;-40
2024/01/21 03:59:09;;;;;;;12.90;6.40;;;;;;;3.06;60.88;102560.09;5041545;28;20497;-40
2024/01/21 04:01:34;;;;;;;11.27;5.28;;;;;;;3.07;60.67;102560.97;5045299;28;20518;-40
2024/01/21 04:04:00;;;;;;;14.18;6.25;;;;;;;3.12;60.47;102567.03;5044840;28;20041;-40
2024/01/21 04:06:27;;;;;;;13.27;6.18;;;;;;;3.11;60.83;102562.72;5043690;28;20036;-41
2024/01/21 04:08:52;;;;;;;14.13;5.53;;;;;;;3.02;60.13;102563.56;5044047;28;20033;-40
2024/01/21 04:11:17;;;;;;;15.82;6.30;;;;;;;3.00;60.41;102573.09;5049809;28;20512;-40
2024/01/21 04:13:42;;;;;;;13.45;6.22;;;;;;;3.00;60.30;102560.94;5042354;28;20020;-40
2024/01/21 04:16:08;;;;;;;10.10;5.25;;;;;;;3.01;60.74;102572.25;5041561;28;20041;-40
2024/01/21 04:18:33;;;;;;;10.65;5.22;;;;;;;3.02;61.01;102571.38;5024167;28;20099;-40
2024/01/21 04:21:00;;;;;;;13.98;6.22;;;;;;;3.00;61.25;102566.16;5039342;28;20025;-40
2024/01/21 04:23:26;;;;;;;14.32;5.43;;;;;;;2.99;61.21;102560.97;5039281;28;20171;-40
2024/01/21 04:25:56;;;;;;;14.07;7.45;;;;;;;2.98;60.55;102562.69;5041701;28;20056;-41
2024/01/21 04:28:21;;;;;;;13.52;6.18;;;;;;;2.99;60.88;102553.16;5040330;28;20029;-39
2024/01/21 04:30:47;;;;;;;19.75;5.45;;;;;;;2.99;60.79;102554.00;5044225;28;20033;-38
2024/01/21 04:33:12;;;;;;;17.95;7.53;;;;;;;3.00;60.96;102557.50;5036742;28;20063;-40
2024/01/21 04:35:37;;;;;;;10.75;5.60;;;;;;;2.98;61.18;102556.63;5044657;28;20035;-40
2024/01/21 04:38:03;;;;;;;9.25;4.78;;;;;;;2.97;60.73;102558.34;5042585;28;20044;-40
2024/01/21 04:40:28;;;;;;;11.27;6.43;;;;;;;2.96;60.69;102561.78;5042458;28;20484;-40
2024/01/21 04:42:53;;;;;;;13.48;5.65;;;;;;;2.93;60.58;102556.59;5041023;28;20106;-41
2024/01/21 04:45:19;;;;;;;9.02;4.50;;;;;;;2.95;60.73;102549.66;5043893;28;20503;-39
2024/01/21 04:47:44;;;;;;;10.25;5.18;;;;;;;2.96;60.87;102546.19;5045926;28;20078;-40
2024/01/21 04:50:10;;;;;;;13.77;5.00;;;;;;;2.95;60.80;102547.06;5027572;28;20041;-40
2024/01/21 04:52:35;;;;;;;11.90;5.85;;;;;;;2.93;60.59;102548.81;5043483;28;20056;-39
2024/01/21 04:55:00;;;;;;;12.75;5.35;;;;;;;2.93;60.94;102551.41;5045008;28;20391;-40
2024/01/21 04:57:26;;;;;;;11.77;4.30;;;;;;;2.97;61.17;102549.69;5028047;28;20036;-41
2024/01/21 04:59:51;;;;;;;10.18;4.57;;;;;;;2.96;61.15;102550.53;5041542;28;20037;-40
2024/01/21 05:02:16;;;;;;;8.75;4.30;;;;;;;2.96;60.99;102547.94;5043269;28;20029;-40
2024/01/21 05:04:42;;;;;;;17.35;6.63;;;;;;;2.91;61.08;102550.53;5048846;28;20119;-40
2024/01/21 05:07:07;;;;;;;12.60;6.25;;;;;;;2.93;61.46;102540.13;5046660;28;20037;-39
2024/01/21 05:09:32;;;;;;;13.70;5.63;;;;;;;2.92;60.93;102539.28;5043529;28;20044;-40
2024/01/21 05:11:58;;;;;;;8.38;4.63;;;;;;;2.88;60.48;102540.13;5027489;28;20501;-40
2024/01/21 05:14:23;;;;;;;13.60;7.32;;;;;;;2.86;60.10;102540.13;5037857;28;20123;-40
2024/01/21 05:16:48;;;;;;;12.90;5.38;;;;;;;2.86;60.29;102542.72;5039197;28;20396;-40
2024/01/21 05:19:14;;;;;;;16.88;6.10;;;;;;;2.86;60.52;102540.13;5027358;28;20033;-39
2024/01/21 05:21:40;;;;;;;13.25;6.05;;;;;;;2.76;57.97;102550.47;5042159;28;20028;-40
2024/01/21 05:24:05;;;;;;;9.90;4.30;;;;;;;2.76;58.78;102545.28;5023588;28;20025;-40
2024/01/21 05:26:31;;;;;;;9.10;6.10;;;;;;;2.71;57.87;102537.47;5040253;28;20460;-41
2024/01/21 05:28:59;;;;;;;12.27;5.85;;;;;;;2.64;57.44;102536.56;5039751;28;20025;-40
2024/01/21 05:31:28;;;;;;;12.20;5.80;;;;;;;2.44;54.77;102529.53;5045428;28;20028;-40
2024/01/21 05:33:53;;;;;;;13.23;5.32;;;;;;;2.56;58.04;102526.13;5042815;28;20039;-40
2024/01/21 05:36:18;;;;;;;12.35;5.38;;;;;;;2.57;56.66;102529.59;5042246;28;20399;-40
2024/01/21 05:38:44;;;;;;;15.10;5.97;;;;;;;2.52;56.49;102534.78;5046438;28;20363;-39
2024/01/21 05:41:12;;;;;;;13.80;4.43;;;;;;;2.50;55.94;102535.59;5038019;28;22251;-40
2024/01/21 05:43:37;;;;;;;11.05;4.90;;;;;;;2.40;55.56;102538.16;5044472;28;20037;-39
2024/01/21 05:46:03;;;;;;;16.23;7.47;;;;;;;2.47;56.64;102526.06;5050810;28;20051;-38
2024/01/21 05:48:28;;;;;;;14.95;6.55;;;;;;;2.50;57.26;102520.00;5049975;28;21196;-39
2024/01/21 05:50:54;;;;;;;13.40;6.05;;;;;;;2.57;58.06;102519.19;5031958;28;20051;-37
2024/01/21 05:53:19;;;;;;;11.35;5.57;;;;;;;2.62;58.80;102512.31;5049405;28;20052;-39
2024/01/21 05:55:45;;;;;;;8.90;3.53;;;;;;;2.69;59.02;102513.19;5050513;28;20068;-40
2024/01/21 05:58:11;;;;;;;11.52;4.95;;;;;;;2.72;58.98;102524.47;5049404;28;20025;-37
2024/01/21 06:00:36;;;;;;;12.38;5.32;;;;;;;2.75;59.33;102523.59;5039422;28;20044;-40
2024/01/21 06:03:02;;;;;;;9.05;4.85;;;;;;;2.78;59.55;102530.56;5032339;28;20029;-40
2024/01/21 06:05:27;;;;;;;10.85;4.72;;;;;;;2.71;58.35;102524.47;5053406;28;20040;-39
2024/01/21 06:07:52;;;;;;;16.65;6.75;;;;;;;2.69;58.40;102524.44;5053057;28;20020;-40
2024/01/21 06:10:17;;;;;;;11.10;5.45;;;;;;;2.73;59.19;102528.78;5043900;28;20037;-40
2024/01/21 06:12:43;;;;;;;14.15;6.65;;;;;;;2.74;58.19;102537.44;5050361;28;20457;-41
2024/01/21 06:15:09;;;;;;;12.23;5.30;;;;;;;2.79;59.07;102520.16;5046240;28;20029;-38
2024/01/21 06:17:34;;;;;;;10.32;5.75;;;;;;;2.81;59.22;102517.53;5042856;28;20072;-40
2024/01/21 06:20:00;;;;;;;15.85;6.15;;;;;;;2.82;59.47;102520.16;5046751;28;20033;-40
2024/01/21 06:22:25;;;;;;;11.80;4.50;;;;;;;2.84;59.80;102507.16;5049835;28;20481;-39
2024/01/21 06:24:50;;;;;;;13.50;5.65;;;;;;;2.86;60.09;102518.44;5039036;28;20487;-40
2024/01/21 06:27:18;;;;;;;10.40;5.90;;;;;;;2.86;59.86;102510.63;5035692;28;20025;-39
2024/01/21 06:29:44;;;;;;;9.77;5.47;;;;;;;2.73;56.05;102507.13;5039679;28;20029;-39
2024/01/21 06:32:10;;;;;;;16.90;5.88;;;;;;;2.71;57.23;102507.13;5040030;28;20025;-39
2024/01/21 06:34:35;;;;;;;14.70;7.45;;;;;;;2.55;54.28;102510.53;5041771;28;20036;-40
2024/01/21 06:37:00;;;;;;;13.68;5.00;;;;;;;2.57;56.34;102503.59;5046690;28;20045;-39
2024/01/21 06:39:26;;;;;;;8.88;5.07;;;;;;;2.55;56.08;102506.22;5029929;28;20064;-39
2024/01/21 06:41:51;;;;;;;13.38;6.55;;;;;;;2.64;57.68;102505.38;5042980;28;20032;-39
2024/01/21 06:44:16;;;;;;;13.25;5.72;;;;;;;2.68;57.62;102507.09;5037190;28;20537;-38
2024/01/21 06:46:42;;;;;;;15.65;6.50;;;;;;;2.73;57.70;102508.00;5046422;28;20059;-39
2024/01/21 06:49:08;;;;;;;13.40;5.30;;;;;;;2.75;56.69;102513.19;5047584;28;20029;-40
2024/01/21 06:51:46;;;;;;;13.52;6.03;;;;;;;2.75;57.21;102513.19;5049687;28;20075;-40
2024/01/21 06:54:12;;;;;;;11.35;5.63;;;;;;;2.74;56.71;102511.44;5046011;28;20021;-40
2024/01/21 06:56:37;;;;;;;12.60;5.85;;;;;;;2.70;56.66;102504.53;5051686;28;20071;-40
2024/01/21 06:59:03;;;;;;;10.27;5.53;;;;;;;2.76;57.68;102504.53;5064466;28;20044;-39
2024/01/21 07:01:29;;;;;;;8.55;4.95;;;;;;;2.82;58.11;102501.97;5036113;28;20128;-40
2024/01/21 07:03:54;;;;;;;12.32;5.18;;;;;;;2.87;57.80;102488.97;5011339;28;20128;-40
2024/01/21 07:06:19;;;;;;;8.25;4.03;;;;;;;2.88;57.29;102493.31;5046819;28;20423;-40
2024/01/21 07:08:45;;;;;;;7.15;4.22;;;;;;;2.93;57.70;102499.41;5048441;28;20495;-41
2024/01/21 07:11:10;;;;;;;6.80;4.63;;;;;;;2.74;52.36;102501.94;5030904;28;20512;-40
2024/01/21 07:13:36;;;;;;;8.18;4.68;;;;;;;2.76;54.72;102509.72;5046589;28;20037;-40
2024/01/21 07:16:02;;;;;;;8.63;4.05;;;;;;;2.79;55.65;102498.50;5032440;28;20028;-39
2024/01/21 07:18:28;;;;;;;12.05;4.43;;;;;;;2.83;56.14;102492.41;5030984;28;20025;-40
2024/01/21 07:20:53;;;;;;;8.07;4.18;;;;;;;2.90;57.12;102487.25;5040696;28;20116;-39
2024/01/21 07:23:18;;;;;;;11.82;5.57;;;;;;;2.93;56.60;102486.41;5026922;28;20399;-39
2024/01/21 07:25:44;;;;;;;8.38;4.40;;;;;;;2.92;55.08;102489.88;5044890;28;20548;-40
2024/01/21 07:28:09;;;;;;;8.80;4.85;;;;;;;2.89;54.88;102487.25;5041893;28;20036;-42
2024/01/21 07:30:34;;;;;;;11.93;5.85;;;;;;;2.89;55.14;102475.09;5040325;28;20407;-38
2024/01/21 07:33:00;;;;;;;16.05;5.20;;;;;;;2.92;55.22;102473.38;5037686;28;20065;-39
2024/01/21 07:35:25;;;;;;;10.50;4.22;;;;;;;3.02;57.38;102476.00;5042486;28;20538;-38
2024/01/21 07:37:50;;;;;;;11.50;5.55;;;;;;;3.07;57.08;102482.94;5022480;28;20039;-38
2024/01/21 07:40:16;;;;;;;12.38;5.68;;;;;;;3.12;57.49;102476.88;5041858;28;20102;-38
2024/01/21 07:42:41;;;;;;;11.95;5.13;;;;;;;3.19;57.84;102477.75;5043277;28;20029;-40
2024/01/21 07:45:07;;;;;;;9.13;4.47;;;;;;;3.29;58.21;102469.09;5038456;28;20163;-40
2024/01/21 07:47:32;;;;;;;8.18;3.97;;;;;;;3.35;58.19;102469.09;5039310;28;20525;-39
2024/01/21 07:49:57;;;;;;;9.23;4.50;;;;;;;3.38;57.90;102468.22;5028092;28;20033;-40
2024/01/21 07:52:23;;;;;;;11.32;4.43;;;;;;;3.43;58.38;102471.72;5046136;28;20056;-40
2024/01/21 07:54:48;;;;;;;9.27;4.55;;;;;;;3.46;58.02;102478.63;5048742;28;20119;-39
2024/01/21 07:57:13;;;;;;;8.80;4.88;;;;;;;3.46;57.57;102484.72;5042588;28;20036;-40
2024/01/21 07:59:39;;;;;;;7.25;4.53;;;;;;;3.43;56.52;102478.63;5044956;28;20079;-39
2024/01/21 08:02:04;;;;;;;10.15;5.07;;;;;;;3.44;56.36;102467.34;5047885;28;20029;-39
2024/01/21 08:04:29;;;;;;;8.07;4.47;;;;;;;3.46;56.76;102465.63;5041878;28;20051;-40
2024/01/21 08:06:54;;;;;;;7.22;4.07;;;;;;;3.49;57.59;102461.28;5039176;28;20105;-40
2024/01/21 08:09:21;;;;;;;11.10;3.90;;;;;;;3.52;57.40;102460.44;5042255;28;20408;-38
2024/01/21 08:11:46;;;;;;;7.95;3.83;;;;;;;3.48;56.49;102463.88;5050298;28;20029;-36
2024/01/21 08:14:11;;;;;;;7.32;4.20;;;;;;;3.48;56.84;102456.94;5047229;28;20020;-41
2024/01/21 08:16:37;;;;;;;10.18;5.30;;;;;;;3.50;56.16;102450.00;5045082;28;20033;-41
2024/01/21 08:19:03;;;;;;;11.60;4.40;;;;;;;3.51;56.92;102441.31;5045199;28;20032;-39
2024/01/21 08:21:29;;;;;;;11.00;4.75;;;;;;;3.49;56.20;102437.84;5043790;28;20044;-39
2024/01/21 08:23:54;;;;;;;7.63;3.72;;;;;;;3.48;55.72;102432.66;5044205;28;20025;-39
2024/01/21 08:26:20;;;;;;;8.90;4.25;;;;;;;3.48;55.67;102428.31;5036685;28;20043;-40
2024/01/21 08:28:45;;;;;;;12.68;3.40;;;;;;;3.43;53.88;102422.25;5046071;28;20124;-40
2024/01/21 08:31:10;;;;;;;7.95;3.67;;;;;;;3.47;55.50;102424.00;5047169;28;20111;-40
2024/01/21 08:33:36;;;;;;;6.82;3.30;;;;;;;3.44;53.09;102431.81;5041564;28;20036;-39
2024/01/21 08:36:01;;;;;;;8.93;3.10;;;;;;;3.41;52.89;102437.00;5025203;28;20526;-38
2024/01/21 08:38:27;;;;;;;14.00;4.53;;;;;;;3.35;53.17;102443.09;5043146;28;20033;-40
2024/01/21 08:40:53;;;;;;;9.10;4.70;;;;;;;3.22;51.31;102448.28;5047685;28;20060;-40
2024/01/21 08:43:18;;;;;;;12.20;3.80;;;;;;;3.13;49.99;102441.31;5018494;28;20029;-40
2024/01/21 08:45:43;;;;;;;6.20;3.45;;;;;;;3.13;51.05;102434.41;5044866;28;20025;-40
2024/01/21 08:48:08;;;;;;;7.13;3.63;;;;;;;3.20;53.34;102417.91;5044362;28;20049;-40
2024/01/21 08:50:34;;;;;;;9.20;3.70;;;;;;;3.24;52.24;102418.81;5027995;28;20495;-40
2024/01/21 08:52:59;;;;;;;8.65;3.60;;;;;;;3.32;52.61;102411.84;5044563;28;20033;-39
2024/01/21 08:55:25;;;;;;;12.27;5.00;;;;;;;3.34;52.40;102415.31;5038489;28;20111;-39
2024/01/21 08:57:50;;;;;;;6.63;2.83;;;;;;;3.41;52.95;102420.50;5036333;28;20121;-39
2024/01/21 09:00:16;;;;;;;7.35;3.25;;;;;;;3.32;50.84;102416.19;5034173;28;20052;-39
2024/01/21 09:02:41;;;;;;;9.75;5.57;;;;;;;3.37;52.58;102418.78;5042310;28;20033;-39
2024/01/21 09:05:07;;;;;;;10.05;4.72;;;;;;;3.43;53.54;102411.84;5024459;28;20037;-39
2024/01/21 09:07:32;;;;;;;6.15;3.15;;;;;;;3.39;51.47;102422.28;5043381;28;20262;-39
2024/01/21 09:09:57;;;;;;;7.43;3.95;;;;;;;3.47;53.54;102418.78;5039459;28;20060;-39
2024/01/21 09:12:23;;;;;;;6.93;3.70;;;;;;;3.46;51.58;102419.66;5034358;28;20526;-40
2024/01/21 09:14:48;;;;;;;7.22;3.90;;;;;;;3.57;53.62;102413.56;5039906;28;20029;-39
2024/01/21 09:17:13;;;;;;;7.63;3.35;;;;;;;3.65;54.49;102415.28;5044190;28;20254;-40
2024/01/21 09:19:39;;;;;;;5.95;3.50;;;;;;;3.75;54.82;102412.66;5048461;28;20052;-40
2024/01/21 09:22:04;;;;;;;8.20;3.65;;;;;;;3.72;51.85;102412.66;5025006;28;20033;-39
2024/01/21 09:24:29;;;;;;;9.73;4.43;;;;;;;3.75;49.82;102405.72;5045875;28;20496;-40
2024/01/21 09:26:55;;;;;;;7.20;3.90;;;;;;;3.80;52.06;102405.72;5045912;28;20318;-40
2024/01/21 09:29:20;;;;;;;26.45;7.57;;;;;;;3.80;50.96;102413.53;5049491;28;20060;-39
2024/01/21 09:31:56;;;;;;;15.30;5.40;;;;;;;3.92;50.94;102423.03;5044016;28;20578;-41
2024/01/21 09:34:22;;;;;;;7.32;3.63;;;;;;;3.93;51.18;102415.22;5042164;28;20048;-39
2024/01/21 09:36:48;;;;;;;7.78;3.75;;;;;;;4.04;53.22;102419.50;5049139;28;20114;-39
2024/01/21 09:39:14;;;;;;;6.22;2.38;;;;;;;4.11;52.21;102411.66;5033854;28;20041;-39
2024/01/21 09:41:50;;;;;;;8.40;3.38;;;;;;;4.19;50.79;102409.03;5049146;28;20032;-40
2024/01/21 09:44:24;;;;;;;6.60;3.20;;;;;;;4.22;51.64;102401.22;5046776;28;20021;-40
2024/01/21 09:46:55;;;;;;;6.63;3.15;;;;;;;4.19;49.97;102414.25;5044411;28;20075;-40
2024/01/21 09:49:21;;;;;;;10.18;3.50;;;;;;;4.29;51.40;102411.63;5051063;28;20162;-40
2024/01/21 09:51:48;;;;;;;8.23;3.50;;;;;;;4.25;50.08;102401.19;5050065;28;20170;-40
2024/01/21 09:54:14;;;;;;;6.68;2.95;;;;;;;4.23;48.85;102396.88;5053800;28;20081;-38
2024/01/21 09:56:40;;;;;;;6.20;3.17;;;;;;;4.35;51.79;102390.72;5046478;28;20033;-40
2024/01/21 09:59:08;;;;;;;7.13;3.58;;;;;;;4.42;50.80;102389.81;5049633;28;20518;-40
2024/01/21 10:01:36;;;;;;;11.23;4.90;;;;;;;4.45;51.10;102392.44;5051372;28;20032;-40
2024/01/21 10:04:01;;;;;;;9.15;4.35;;;;;;;4.46;50.21;102388.06;5045757;28;20025;-40
2024/01/21 10:06:26;;;;;;;9.48;4.35;;;;;;;4.46;50.58;102388.94;5049768;28;20047;-40
2024/01/21 10:08:51;;;;;;;4.95;2.97;;;;;;;4.51;49.29;102371.50;5045619;28;20164;-40
2024/01/21 10:11:17;;;;;;;3.92;2.63;;;;;;;4.55;49.78;102373.25;5042246;28;20033;-40
2024/01/21 10:13:44;;;;;;;4.55;2.00;;;;;;;4.65;49.02;102374.06;5044165;28;20533;-40
2024/01/21 10:16:10;;;;;;;6.30;3.20;;;;;;;4.61;48.27;102376.69;5044130;28;20705;-39
2024/01/21 10:18:36;;;;;;;4.80;2.40;;;;;;;4.68;50.77;102373.16;5043152;28;20043;-41
2024/01/21 10:21:05;;;;;;;5.90;2.85;;;;;;;4.79;51.26;102371.31;5044367;28;20036;-40
2024/01/21 10:23:33;;;;;;;6.40;2.95;;;;;;;4.78;49.67;102356.56;5041544;28;20508;-39
2024/01/21 10:25:59;;;;;;;8.38;3.20;;;;;;;4.80;50.59;102362.63;5037485;28;20420;-40
2024/01/21 10:28:24;;;;;;;6.55;2.28;;;;;;;4.77;48.25;102346.16;5040458;28;20458;-40
2024/01/21 10:30:49;;;;;;;5.97;2.85;;;;;;;4.84;49.72;102340.88;5041234;28;20045;-40
2024/01/21 10:33:14;;;;;;;7.68;2.60;;;;;;;4.85;49.50;102326.94;5038956;28;20072;-40
2024/01/21 10:35:41;;;;;;;8.43;3.33;;;;;;;4.80;46.91;102317.44;5040353;28;20064;-40
2024/01/21 10:38:11;;;;;;;5.78;2.75;;;;;;;4.70;43.64;102314.88;5043620;28;20028;-39
2024/01/21 10:40:43;;;;;;;5.65;2.00;;;;;;;4.70;46.75;102308.81;5045565;28;20678;-39
2024/01/21 10:43:12;;;;;;;5.47;2.70;;;;;;;4.74;47.58;102302.72;5049537;28;20451;-40
2024/01/21 10:45:38;;;;;;;8.15;2.28;;;;;;;4.80;48.52;102307.84;5027495;28;20029;-40
2024/01/21 10:48:04;;;;;;;4.35;2.10;;;;;;;4.85;48.18;102306.09;5043687;28;20033;-40
2024/01/21 10:50:30;;;;;;;17.70;4.05;;;;;;;4.92;48.48;102308.63;5042850;28;20044;-39
2024/01/21 10:52:55;;;;;;;5.35;1.98;;;;;;;4.95;47.75;102299.03;5045265;28;20118;-38
2024/01/21 10:55:21;;;;;;;3.53;1.77;;;;;;;5.02;47.92;102292.03;5046530;28;20056;-39
2024/01/21 10:57:47;;;;;;;4.22;2.72;;;;;;;5.00;45.73;102292.03;5047328;28;20040;-39
2024/01/21 11:00:13;;;;;;;4.80;2.35;;;;;;;5.10;48.13;102295.41;5044291;28;20037;-39
2024/01/21 11:02:38;;;;;;;4.35;2.38;;;;;;;5.12;47.95;102300.63;5037263;28;20051;-40
2024/01/21 11:05:04;;;;;;;5.43;2.30;;;;;;;5.19;50.07;102297.94;5040153;28;20032;-40
2024/01/21 11:07:30;;;;;;;7.35;2.28;;;;;;;5.19;48.06;102297.06;5028977;28;20037;-39
2024/01/21 11:09:57;;;;;;;3.55;1.77;;;;;;;5.23;48.65;102293.56;5046933;28;20036;-40
2024/01/21 11:12:23;;;;;;;7.85;2.40;;;;;;;5.22;49.28;102301.41;5042150;28;20041;-40
2024/01/21 11:14:49;;;;;;;6.97;2.03;;;;;;;5.18;46.34;102282.28;5042711;28;20032;-40
2024/01/21 11:17:18;;;;;;;4.95;2.08;;;;;;;5.16;46.53;102284.94;5044392;28;20048;-39
2024/01/21 11:19:49;;;;;;;5.22;3.38;;;;;;;5.09;42.97;102285.00;5043895;28;20029;-41